sensor_id;sensor_type;location;lat;lon;timestamp;pressure;altitude;pressure_sealevel;temperature
24740;BMP280;45234;48.148;17.128;2022-09-27T00:01:04;98721.69;;;14.41
24740;BMP280;45234;48.148;17.128;2022-09-27T00:03:30;98712.72;;;14.32
24740;BMP280;45234;48.148;17.128;2022-09-27T00:06:01;98704.91;;;14.27
24740;BMP280;45234;48.148;17.128;2022-09-27T00:08:29;98710.31;;;14.20
24740;BMP280;45234;48.148;17.128;2022-09-27T00:11:00;98712.56;;;14.12
24740;BMP280;45234;48.148;17.128;2022-09-27T00:13:27;98708.63;;;14.04
24740;BMP280;45234;48.148;17.128;2022-09-27T00:15:58;98688.16;;;13.86
24740;BMP280;45234;48.148;17.128;2022-09-27T00:18:25;98696.75;;;13.86
24740;BMP280;45234;48.148;17.128;2022-09-27T00:20:52;98691.97;;;13.78
24740;BMP280;45234;48.148;17.128;2022-09-27T00:23:19;98692.63;;;13.68
24740;BMP280;45234;48.148;17.128;2022-09-27T00:25:55;98691.63;;;13.69
24740;BMP280;45234;48.148;17.128;2022-09-27T00:28:22;98684.59;;;13.70
24740;BMP280;45234;48.148;17.128;2022-09-27T00:30:49;98686.09;;;13.61
24740;BMP280;45234;48.148;17.128;2022-09-27T00:33:16;98684.19;;;13.56
24740;BMP280;45234;48.148;17.128;2022-09-27T00:35:43;98681.56;;;13.51
24740;BMP280;45234;48.148;17.128;2022-09-27T00:38:10;98689.84;;;13.48
24740;BMP280;45234;48.148;17.128;2022-09-27T00:40:37;98677.72;;;13.37
24740;BMP280;45234;48.148;17.128;2022-09-27T00:43:42;98681.88;;;13.33
24740;BMP280;45234;48.148;17.128;2022-09-27T00:45:58;98670.13;;;13.30
24740;BMP280;45234;48.148;17.128;2022-09-27T00:48:29;98667.81;;;13.29
24740;BMP280;45234;48.148;17.128;2022-09-27T00:50:57;98672.72;;;13.30
24740;BMP280;45234;48.148;17.128;2022-09-27T00:53:41;98670.91;;;13.31
24740;BMP280;45234;48.148;17.128;2022-09-27T00:56:13;98669.81;;;13.27
24740;BMP280;45234;48.148;17.128;2022-09-27T00:58:43;98664.41;;;13.28
24740;BMP280;45234;48.148;17.128;2022-09-27T01:01:11;98660.94;;;13.23
24740;BMP280;45234;48.148;17.128;2022-09-27T01:03:44;98647.34;;;13.16
24740;BMP280;45234;48.148;17.128;2022-09-27T01:06:12;98645.28;;;13.18
24740;BMP280;45234;48.148;17.128;2022-09-27T01:08:40;98644.81;;;13.21
24740;BMP280;45234;48.148;17.128;2022-09-27T01:16:23;98633.38;;;13.22
24740;BMP280;45234;48.148;17.128;2022-09-27T01:18:58;98631.47;;;13.17
24740;BMP280;45234;48.148;17.128;2022-09-27T01:21:29;98623.91;;;13.16
24740;BMP280;45234;48.148;17.128;2022-09-27T01:27:24;98617.22;;;13.20
24740;BMP280;45234;48.148;17.128;2022-09-27T01:35:18;98608.91;;;13.23
24740;BMP280;45234;48.148;17.128;2022-09-27T01:46:14;98593.25;;;13.18
24740;BMP280;45234;48.148;17.128;2022-09-27T01:49:03;98592.22;;;13.19
24740;BMP280;45234;48.148;17.128;2022-09-27T01:51:34;98585.13;;;13.09
24740;BMP280;45234;48.148;17.128;2022-09-27T01:54:03;98577.13;;;12.94
24740;BMP280;45234;48.148;17.128;2022-09-27T01:56:51;98589.28;;;12.88
24740;BMP280;45234;48.148;17.128;2022-09-27T01:59:25;98581.41;;;12.83
24740;BMP280;45234;48.148;17.128;2022-09-27T02:02:14;98577.72;;;12.79
24740;BMP280;45234;48.148;17.128;2022-09-27T02:05:20;98575.03;;;12.69
24740;BMP280;45234;48.148;17.128;2022-09-27T02:07:54;98575.19;;;12.62
24740;BMP280;45234;48.148;17.128;2022-09-27T02:10:23;98571.72;;;12.57
24740;BMP280;45234;48.148;17.128;2022-09-27T02:13:42;98556.13;;;12.57
24740;BMP280;45234;48.148;17.128;2022-09-27T02:15:46;98548.28;;;12.52
24740;BMP280;45234;48.148;17.128;2022-09-27T02:21:12;98550.59;;;12.48
24740;BMP280;45234;48.148;17.128;2022-09-27T02:29:29;98564.28;;;12.44
24740;BMP280;45234;48.148;17.128;2022-09-27T02:31:43;98563.88;;;12.52
24740;BMP280;45234;48.148;17.128;2022-09-27T02:34:23;98556.25;;;12.45
24740;BMP280;45234;48.148;17.128;2022-09-27T02:36:51;98559.94;;;12.49
24740;BMP280;45234;48.148;17.128;2022-09-27T02:39:19;98556.06;;;12.52
24740;BMP280;45234;48.148;17.128;2022-09-27T02:41:53;98556.44;;;12.60
24740;BMP280;45234;48.148;17.128;2022-09-27T02:44:23;98562.13;;;12.57
24740;BMP280;45234;48.148;17.128;2022-09-27T03:03:59;98554.41;;;12.62
24740;BMP280;45234;48.148;17.128;2022-09-27T03:06:29;98547.94;;;12.65
24740;BMP280;45234;48.148;17.128;2022-09-27T03:08:57;98553.28;;;12.75
24740;BMP280;45234;48.148;17.128;2022-09-27T03:11:24;98546.16;;;12.71
24740;BMP280;45234;48.148;17.128;2022-09-27T03:13:51;98548.88;;;12.76
24740;BMP280;45234;48.148;17.128;2022-09-27T03:16:39;98542.38;;;12.78
24740;BMP280;45234;48.148;17.128;2022-09-27T03:19:15;98539.28;;;12.81
24740;BMP280;45234;48.148;17.128;2022-09-27T03:22:01;98541.38;;;12.84
24740;BMP280;45234;48.148;17.128;2022-09-27T03:24:27;98543.75;;;12.86
24740;BMP280;45234;48.148;17.128;2022-09-27T03:26:54;98530.78;;;12.91
24740;BMP280;45234;48.148;17.128;2022-09-27T03:29:21;98539.75;;;13.00
24740;BMP280;45234;48.148;17.128;2022-09-27T03:31:55;98531.16;;;12.99
24740;BMP280;45234;48.148;17.128;2022-09-27T03:34:41;98522.69;;;13.09
24740;BMP280;45234;48.148;17.128;2022-09-27T03:37:08;98527.56;;;13.06
24740;BMP280;45234;48.148;17.128;2022-09-27T03:39:35;98523.97;;;13.07
24740;BMP280;45234;48.148;17.128;2022-09-27T03:42:02;98521.78;;;12.98
24740;BMP280;45234;48.148;17.128;2022-09-27T03:44:28;98524.16;;;13.00
24740;BMP280;45234;48.148;17.128;2022-09-27T03:46:55;98518.16;;;12.99
24740;BMP280;45234;48.148;17.128;2022-09-27T03:49:22;98506.19;;;12.98
24740;BMP280;45234;48.148;17.128;2022-09-27T03:51:49;98509.31;;;13.00
24740;BMP280;45234;48.148;17.128;2022-09-27T03:54:16;98515.38;;;13.06
24740;BMP280;45234;48.148;17.128;2022-09-27T03:56:42;98501.88;;;13.09
24740;BMP280;45234;48.148;17.128;2022-09-27T03:59:10;98501.28;;;13.02
24740;BMP280;45234;48.148;17.128;2022-09-27T04:01:57;98504.66;;;13.02
24740;BMP280;45234;48.148;17.128;2022-09-27T04:04:43;98492.69;;;13.01
24740;BMP280;45234;48.148;17.128;2022-09-27T04:07:10;98493.53;;;13.07
24740;BMP280;45234;48.148;17.128;2022-09-27T04:09:37;98486.47;;;13.02
24740;BMP280;45234;48.148;17.128;2022-09-27T04:12:10;98477.53;;;12.93
24740;BMP280;45234;48.148;17.128;2022-09-27T04:14:37;98476.94;;;12.86
24740;BMP280;45234;48.148;17.128;2022-09-27T04:17:41;98475.06;;;12.82
24740;BMP280;45234;48.148;17.128;2022-09-27T04:20:27;98474.28;;;12.81
24740;BMP280;45234;48.148;17.128;2022-09-27T04:22:55;98469.97;;;12.65
24740;BMP280;45234;48.148;17.128;2022-09-27T04:25:22;98469.75;;;12.72
24740;BMP280;45234;48.148;17.128;2022-09-27T04:27:49;98455.06;;;12.82
24740;BMP280;45234;48.148;17.128;2022-09-27T04:30:21;98453.25;;;12.83
24740;BMP280;45234;48.148;17.128;2022-09-27T04:33:11;98461.69;;;12.68
24740;BMP280;45234;48.148;17.128;2022-09-27T04:35:47;98463.19;;;12.64
24740;BMP280;45234;48.148;17.128;2022-09-27T04:38:36;98467.22;;;12.77
24740;BMP280;45234;48.148;17.128;2022-09-27T04:41:05;98468.94;;;12.66
24740;BMP280;45234;48.148;17.128;2022-09-27T04:43:37;98468.94;;;12.66
24740;BMP280;45234;48.148;17.128;2022-09-27T04:46:04;98477.31;;;12.73
24740;BMP280;45234;48.148;17.128;2022-09-27T04:48:31;98467.78;;;12.84
24740;BMP280;45234;48.148;17.128;2022-09-27T04:50:58;98468.38;;;12.86
24740;BMP280;45234;48.148;17.128;2022-09-27T04:53:28;98470.19;;;12.85
24740;BMP280;45234;48.148;17.128;2022-09-27T04:55:58;98470.88;;;12.76
24740;BMP280;45234;48.148;17.128;2022-09-27T04:58:24;98455.19;;;12.71
24740;BMP280;45234;48.148;17.128;2022-09-27T05:00:51;98458.56;;;12.71
24740;BMP280;45234;48.148;17.128;2022-09-27T05:03:37;98462.19;;;12.70
24740;BMP280;45234;48.148;17.128;2022-09-27T05:06:10;98457.56;;;12.72
24740;BMP280;45234;48.148;17.128;2022-09-27T05:08:37;98453.47;;;12.76
24740;BMP280;45234;48.148;17.128;2022-09-27T05:11:26;98451.63;;;12.77
24740;BMP280;45234;48.148;17.128;2022-09-27T05:14:18;98450.31;;;12.74
24740;BMP280;45234;48.148;17.128;2022-09-27T05:17:05;98442.31;;;12.81
24740;BMP280;45234;48.148;17.128;2022-09-27T05:19:47;98444.66;;;12.82
24740;BMP280;45234;48.148;17.128;2022-09-27T05:22:29;98440.81;;;12.90
24740;BMP280;45234;48.148;17.128;2022-09-27T05:24:56;98429.75;;;12.99
24740;BMP280;45234;48.148;17.128;2022-09-27T05:27:33;98436.53;;;13.06
24740;BMP280;45234;48.148;17.128;2022-09-27T05:30:00;98432.47;;;13.15
24740;BMP280;45234;48.148;17.128;2022-09-27T05:32:43;98421.09;;;13.21
24740;BMP280;45234;48.148;17.128;2022-09-27T05:35:32;98419.88;;;13.01
24740;BMP280;45234;48.148;17.128;2022-09-27T05:37:59;98420.31;;;12.93
24740;BMP280;45234;48.148;17.128;2022-09-27T05:40:29;98409.91;;;12.93
24740;BMP280;45234;48.148;17.128;2022-09-27T05:43:11;98408.16;;;12.72
24740;BMP280;45234;48.148;17.128;2022-09-27T05:45:38;98409.72;;;12.73
24740;BMP280;45234;48.148;17.128;2022-09-27T05:48:06;98405.97;;;12.86
24740;BMP280;45234;48.148;17.128;2022-09-27T05:50:45;98407.97;;;12.79
24740;BMP280;45234;48.148;17.128;2022-09-27T05:53:12;98403.97;;;12.66
24740;BMP280;45234;48.148;17.128;2022-09-27T05:55:40;98408.16;;;12.72
24740;BMP280;45234;48.148;17.128;2022-09-27T05:58:07;98394.38;;;12.72
24740;BMP280;45234;48.148;17.128;2022-09-27T06:00:39;98405.22;;;12.90
24740;BMP280;45234;48.148;17.128;2022-09-27T06:03:28;98403.91;;;12.88
24740;BMP280;45234;48.148;17.128;2022-09-27T06:06:07;98405.22;;;12.90
24740;BMP280;45234;48.148;17.128;2022-09-27T06:08:44;98407.81;;;12.90
24740;BMP280;45234;48.148;17.128;2022-09-27T06:11:14;98413.28;;;12.89
24740;BMP280;45234;48.148;17.128;2022-09-27T06:13:42;98406.00;;;12.91
24740;BMP280;45234;48.148;17.128;2022-09-27T06:16:10;98406.75;;;12.86
24740;BMP280;45234;48.148;17.128;2022-09-27T06:18:41;98406.28;;;12.89
24740;BMP280;45234;48.148;17.128;2022-09-27T06:21:08;98399.19;;;12.85
24740;BMP280;45234;48.148;17.128;2022-09-27T06:23:37;98402.09;;;12.88
24740;BMP280;45234;48.148;17.128;2022-09-27T06:26:12;98395.88;;;12.89
24740;BMP280;45234;48.148;17.128;2022-09-27T06:28:49;98395.88;;;12.89
24740;BMP280;45234;48.148;17.128;2022-09-27T06:31:17;98397.94;;;12.92
24740;BMP280;45234;48.148;17.128;2022-09-27T06:33:51;98398.63;;;13.10
24740;BMP280;45234;48.148;17.128;2022-09-27T06:36:18;98395.50;;;13.08
24740;BMP280;45234;48.148;17.128;2022-09-27T06:38:46;98398.06;;;13.02
24740;BMP280;45234;48.148;17.128;2022-09-27T06:41:20;98394.63;;;12.97
24740;BMP280;45234;48.148;17.128;2022-09-27T06:44:04;98393.59;;;13.03
24740;BMP280;45234;48.148;17.128;2022-09-27T06:46:50;98392.31;;;13.06
24740;BMP280;45234;48.148;17.128;2022-09-27T06:49:23;98389.97;;;13.04
24740;BMP280;45234;48.148;17.128;2022-09-27T06:51:51;98391.09;;;13.08
24740;BMP280;45234;48.148;17.128;2022-09-27T06:54:21;98390.75;;;13.05
24740;BMP280;45234;48.148;17.128;2022-09-27T06:56:48;98393.59;;;13.03
24740;BMP280;45234;48.148;17.128;2022-09-27T06:59:15;98393.94;;;13.07
24740;BMP280;45234;48.148;17.128;2022-09-27T07:02:19;98388.78;;;13.17
24740;BMP280;45234;48.148;17.128;2022-09-27T07:05:09;98391.50;;;13.32
24740;BMP280;45234;48.148;17.128;2022-09-27T07:07:44;98397.66;;;13.21
24740;BMP280;45234;48.148;17.128;2022-09-27T07:10:13;98393.44;;;13.15
24740;BMP280;45234;48.148;17.128;2022-09-27T07:12:41;98391.34;;;13.07
24740;BMP280;45234;48.148;17.128;2022-09-27T07:15:08;98401.16;;;13.05
24740;BMP280;45234;48.148;17.128;2022-09-27T07:17:38;98397.56;;;13.11
24740;BMP280;45234;48.148;17.128;2022-09-27T07:20:05;98399.72;;;13.19
24740;BMP280;45234;48.148;17.128;2022-09-27T07:22:31;98410.47;;;13.27
24740;BMP280;45234;48.148;17.128;2022-09-27T07:25:01;98400.63;;;13.34
24740;BMP280;45234;48.148;17.128;2022-09-27T07:27:28;98399.91;;;13.44
24740;BMP280;45234;48.148;17.128;2022-09-27T07:29:56;98401.50;;;13.50
24740;BMP280;45234;48.148;17.128;2022-09-27T07:32:24;98387.47;;;13.56
24740;BMP280;45234;48.148;17.128;2022-09-27T07:34:51;98387.75;;;13.55
24740;BMP280;45234;48.148;17.128;2022-09-27T07:37:19;98375.75;;;13.49
24740;BMP280;45234;48.148;17.128;2022-09-27T07:39:46;98371.81;;;13.46
24740;BMP280;45234;48.148;17.128;2022-09-27T07:42:12;98369.19;;;13.46
24740;BMP280;45234;48.148;17.128;2022-09-27T07:44:43;98370.97;;;13.35
24740;BMP280;45234;48.148;17.128;2022-09-27T07:47:33;98375.44;;;13.40
24740;BMP280;45234;48.148;17.128;2022-09-27T07:50:05;98371.78;;;13.41
24740;BMP280;45234;48.148;17.128;2022-09-27T07:52:48;98368.09;;;13.32
24740;BMP280;45234;48.148;17.128;2022-09-27T07:55:39;98366.69;;;13.19
24740;BMP280;45234;48.148;17.128;2022-09-27T07:58:16;98359.69;;;13.20
24740;BMP280;45234;48.148;17.128;2022-09-27T08:00:43;98363.09;;;13.25
24740;BMP280;45234;48.148;17.128;2022-09-27T08:03:11;98370.63;;;13.27
24740;BMP280;45234;48.148;17.128;2022-09-27T08:05:41;98363.41;;;13.34
24740;BMP280;45234;48.148;17.128;2022-09-27T08:08:08;98371.47;;;13.37
24740;BMP280;45234;48.148;17.128;2022-09-27T08:10:35;98369.69;;;13.43
24740;BMP280;45234;48.148;17.128;2022-09-27T08:13:02;98371.81;;;13.46
24740;BMP280;45234;48.148;17.128;2022-09-27T08:15:30;98376.78;;;13.53
24740;BMP280;45234;48.148;17.128;2022-09-27T08:17:57;98381.22;;;13.57
24740;BMP280;45234;48.148;17.128;2022-09-27T08:20:44;98383.88;;;13.62
24740;BMP280;45234;48.148;17.128;2022-09-27T08:23:25;98385.69;;;13.62
24740;BMP280;45234;48.148;17.128;2022-09-27T08:26:13;98384.44;;;13.69
24740;BMP280;45234;48.148;17.128;2022-09-27T08:29:14;98376.66;;;13.80
24740;BMP280;45234;48.148;17.128;2022-09-27T08:31:51;98376.66;;;13.80
24740;BMP280;45234;48.148;17.128;2022-09-27T08:34:19;98375.09;;;13.79
24740;BMP280;45234;48.148;17.128;2022-09-27T08:36:47;98373.56;;;13.83
24740;BMP280;45234;48.148;17.128;2022-09-27T08:39:14;98376.22;;;13.93
24740;BMP280;45234;48.148;17.128;2022-09-27T08:47:15;98396.78;;;13.99
24740;BMP280;45234;48.148;17.128;2022-09-27T08:50:05;98397.06;;;13.98
24740;BMP280;45234;48.148;17.128;2022-09-27T08:52:36;98409.03;;;13.99
24740;BMP280;45234;48.148;17.128;2022-09-27T08:57:49;98401.22;;;13.99
24740;BMP280;45234;48.148;17.128;2022-09-27T09:00:19;98406.16;;;13.95
24740;BMP280;45234;48.148;17.128;2022-09-27T09:02:47;98400.94;;;13.95
24740;BMP280;45234;48.148;17.128;2022-09-27T09:05:30;98403.31;;;13.97
24740;BMP280;45234;48.148;17.128;2022-09-27T09:14:01;98400.94;;;13.95
24740;BMP280;45234;48.148;17.128;2022-09-27T09:30:18;98383.63;;;14.41
24740;BMP280;45234;48.148;17.128;2022-09-27T09:37:56;98381.84;;;14.67
24740;BMP280;45234;48.148;17.128;2022-09-27T09:45:40;98375.31;;;14.80
24740;BMP280;45234;48.148;17.128;2022-09-27T09:50:40;98380.00;;;14.93
24740;BMP280;45234;48.148;17.128;2022-09-27T09:55:50;98365.66;;;14.91
24740;BMP280;45234;48.148;17.128;2022-09-27T10:01:12;98368.00;;;14.92
24740;BMP280;45234;48.148;17.128;2022-09-27T10:03:41;98383.66;;;14.97
24740;BMP280;45234;48.148;17.128;2022-09-27T10:06:09;98422.25;;;14.95
24740;BMP280;45234;48.148;17.128;2022-09-27T10:08:36;98411.28;;;14.53
24740;BMP280;45234;48.148;17.128;2022-09-27T10:11:24;98407.19;;;13.99
24740;BMP280;45234;48.148;17.128;2022-09-27T10:14:08;98407.03;;;13.59
24740;BMP280;45234;48.148;17.128;2022-09-27T10:16:36;98413.03;;;13.22
24740;BMP280;45234;48.148;17.128;2022-09-27T10:19:04;98408.31;;;13.19
24740;BMP280;45234;48.148;17.128;2022-09-27T10:21:31;98407.47;;;13.09
24740;BMP280;45234;48.148;17.128;2022-09-27T10:24:01;98405.78;;;13.29
24740;BMP280;45234;48.148;17.128;2022-09-27T10:26:50;98402.03;;;13.15
24740;BMP280;45234;48.148;17.128;2022-09-27T10:29:21;98404.16;;;13.23
24740;BMP280;45234;48.148;17.128;2022-09-27T10:31:48;98408.16;;;13.36
24740;BMP280;45234;48.148;17.128;2022-09-27T10:34:20;98421.38;;;13.61
24740;BMP280;45234;48.148;17.128;2022-09-27T10:37:05;98409.41;;;13.65
24740;BMP280;45234;48.148;17.128;2022-09-27T10:39:33;98400.59;;;13.71
24740;BMP280;45234;48.148;17.128;2022-09-27T10:44:48;98402.19;;;13.83
24740;BMP280;45234;48.148;17.128;2022-09-27T10:47:26;98397.31;;;13.96
24740;BMP280;45234;48.148;17.128;2022-09-27T10:50:15;98397.63;;;14.10
24740;BMP280;45234;48.148;17.128;2022-09-27T10:53:12;98413.25;;;14.10
24740;BMP280;45234;48.148;17.128;2022-09-27T10:55:41;98412.78;;;14.23
24740;BMP280;45234;48.148;17.128;2022-09-27T10:58:15;98411.22;;;14.27
24740;BMP280;45234;48.148;17.128;2022-09-27T11:00:43;98417.50;;;14.36
24740;BMP280;45234;48.148;17.128;2022-09-27T11:03:19;98397.72;;;14.51
24740;BMP280;45234;48.148;17.128;2022-09-27T11:05:46;98394.06;;;14.72
24740;BMP280;45234;48.148;17.128;2022-09-27T11:08:21;98388.63;;;14.68
24740;BMP280;45234;48.148;17.128;2022-09-27T11:10:59;98381.56;;;14.69
24740;BMP280;45234;48.148;17.128;2022-09-27T11:13:27;98381.31;;;14.91
24740;BMP280;45234;48.148;17.128;2022-09-27T11:24:15;98389.25;;;15.65
24740;BMP280;45234;48.148;17.128;2022-09-27T11:35:13;98381.06;;;15.92
24740;BMP280;45234;48.148;17.128;2022-09-27T11:45:50;98389.69;;;15.87
24740;BMP280;45234;48.148;17.128;2022-09-27T11:59:06;98365.47;;;16.21
24740;BMP280;45234;48.148;17.128;2022-09-27T12:14:04;98364.56;;;15.97
24740;BMP280;45234;48.148;17.128;2022-09-27T12:16:31;98370.84;;;15.96
24740;BMP280;45234;48.148;17.128;2022-09-27T12:19:00;98367.97;;;15.97
24740;BMP280;45234;48.148;17.128;2022-09-27T12:21:48;98377.88;;;16.00
24740;BMP280;45234;48.148;17.128;2022-09-27T12:24:19;98382.78;;;16.07
24740;BMP280;45234;48.148;17.128;2022-09-27T12:27:18;98386.13;;;16.17
24740;BMP280;45234;48.148;17.128;2022-09-27T12:29:47;98391.59;;;16.21
24740;BMP280;45234;48.148;17.128;2022-09-27T12:32:21;98399.44;;;16.26
24740;BMP280;45234;48.148;17.128;2022-09-27T12:37:30;98401.34;;;16.49
24740;BMP280;45234;48.148;17.128;2022-09-27T12:40:14;98390.91;;;16.44
24740;BMP280;45234;48.148;17.128;2022-09-27T12:45:44;98407.06;;;16.12
24740;BMP280;45234;48.148;17.128;2022-09-27T12:48:25;98407.84;;;16.13
24740;BMP280;45234;48.148;17.128;2022-09-27T12:50:57;98414.34;;;16.20
24740;BMP280;45234;48.148;17.128;2022-09-27T12:53:33;98407.03;;;16.17
24740;BMP280;45234;48.148;17.128;2022-09-27T12:56:08;98404.69;;;16.21
24740;BMP280;45234;48.148;17.128;2022-09-27T13:13:57;98414.75;;;15.94
24740;BMP280;45234;48.148;17.128;2022-09-27T13:16:26;98416.81;;;15.97
24740;BMP280;45234;48.148;17.128;2022-09-27T13:18:57;98409.97;;;16.01
24740;BMP280;45234;48.148;17.128;2022-09-27T13:27:51;98405.88;;;15.95
24740;BMP280;45234;48.148;17.128;2022-09-27T13:33:19;98399.53;;;16.01
24740;BMP280;45234;48.148;17.128;2022-09-27T13:35:35;98395.38;;;16.05
24740;BMP280;45234;48.148;17.128;2022-09-27T13:38:20;98399.75;;;16.14
24740;BMP280;45234;48.148;17.128;2022-09-27T13:40:48;98405.94;;;16.23
24740;BMP280;45234;48.148;17.128;2022-09-27T13:43:45;98415.59;;;16.28
24740;BMP280;45234;48.148;17.128;2022-09-27T13:46:22;98419.28;;;16.27
24740;BMP280;45234;48.148;17.128;2022-09-27T13:51:49;98416.16;;;16.25
24740;BMP280;45234;48.148;17.128;2022-09-27T13:57:02;98406.50;;;16.20
24740;BMP280;45234;48.148;17.128;2022-09-27T13:59:36;98394.50;;;16.19
24740;BMP280;45234;48.148;17.128;2022-09-27T14:02:28;98402.56;;;16.23
24740;BMP280;45234;48.148;17.128;2022-09-27T14:04:58;98402.81;;;16.27
24740;BMP280;45234;48.148;17.128;2022-09-27T14:07:33;98408.28;;;16.30
24740;BMP280;45234;48.148;17.128;2022-09-27T14:10:02;98404.06;;;16.34
24740;BMP280;45234;48.148;17.128;2022-09-27T14:12:34;98415.28;;;16.40
24740;BMP280;45234;48.148;17.128;2022-09-27T14:15:06;98412.44;;;16.36
24740;BMP280;45234;48.148;17.128;2022-09-27T14:17:34;98421.63;;;16.29
24740;BMP280;45234;48.148;17.128;2022-09-27T14:20:00;98418.22;;;16.28
24740;BMP280;45234;48.148;17.128;2022-09-27T14:22:29;98422.41;;;16.29
24740;BMP280;45234;48.148;17.128;2022-09-27T14:25:15;98414.34;;;16.26
24740;BMP280;45234;48.148;17.128;2022-09-27T14:27:45;98413.00;;;16.23
24740;BMP280;45234;48.148;17.128;2022-09-27T14:30:48;98419.78;;;16.29
24740;BMP280;45234;48.148;17.128;2022-09-27T14:33:44;98424.97;;;16.34
24740;BMP280;45234;48.148;17.128;2022-09-27T14:39:15;98430.19;;;16.34
24740;BMP280;45234;48.148;17.128;2022-09-27T14:41:48;98426.06;;;16.28
24740;BMP280;45234;48.148;17.128;2022-09-27T14:44:16;98437.09;;;16.20
24740;BMP280;45234;48.148;17.128;2022-09-27T14:46:44;98435.03;;;16.12
24740;BMP280;45234;48.148;17.128;2022-09-27T14:49:18;98439.22;;;16.08
24740;BMP280;45234;48.148;17.128;2022-09-27T14:51:52;98440.56;;;16.05
24740;BMP280;45234;48.148;17.128;2022-09-27T14:54:22;98444.72;;;16.06
24740;BMP280;45234;48.148;17.128;2022-09-27T14:56:50;98446.56;;;16.01
24740;BMP280;45234;48.148;17.128;2022-09-27T14:59:21;98440.31;;;15.97
24740;BMP280;45234;48.148;17.128;2022-09-27T15:01:52;98448.16;;;15.92
24740;BMP280;45234;48.148;17.128;2022-09-27T15:04:19;98447.38;;;15.91
24740;BMP280;45234;48.148;17.128;2022-09-27T15:06:47;98446.13;;;15.94
24740;BMP280;45234;48.148;17.128;2022-09-27T15:09:15;98451.34;;;15.94
24740;BMP280;45234;48.148;17.128;2022-09-27T15:11:52;98447.69;;;15.90
24740;BMP280;45234;48.148;17.128;2022-09-27T15:14:20;98448.22;;;15.86
24740;BMP280;45234;48.148;17.128;2022-09-27T15:16:48;98453.69;;;15.85
24740;BMP280;45234;48.148;17.128;2022-09-27T15:19:16;98458.91;;;15.85
24740;BMP280;45234;48.148;17.128;2022-09-27T15:21:47;98458.69;;;15.81
24740;BMP280;45234;48.148;17.128;2022-09-27T15:26:59;98456.09;;;15.66
24740;BMP280;45234;48.148;17.128;2022-09-27T15:29:26;98458.75;;;15.61
24740;BMP280;45234;48.148;17.128;2022-09-27T15:31:57;98456.63;;;15.58
24740;BMP280;45234;48.148;17.128;2022-09-27T15:34:25;98465.53;;;15.52
24740;BMP280;45234;48.148;17.128;2022-09-27T15:36:53;98463.44;;;15.49
24740;BMP280;45234;48.148;17.128;2022-09-27T15:41:58;98470.78;;;15.37
24740;BMP280;45234;48.148;17.128;2022-09-27T15:47:09;98473.63;;;15.35
24740;BMP280;45234;48.148;17.128;2022-09-27T15:49:51;98465.03;;;15.35
24740;BMP280;45234;48.148;17.128;2022-09-27T15:55:04;98476.00;;;15.32
24740;BMP280;45234;48.148;17.128;2022-09-27T15:57:31;98485.41;;;15.28
24740;BMP280;45234;48.148;17.128;2022-09-27T15:59:59;98488.00;;;15.28
24740;BMP280;45234;48.148;17.128;2022-09-27T16:02:26;98486.44;;;15.17
24740;BMP280;45234;48.148;17.128;2022-09-27T16:04:52;98491.69;;;15.11
24740;BMP280;45234;48.148;17.128;2022-09-27T16:07:19;98493.22;;;15.07
24740;BMP280;45234;48.148;17.128;2022-09-27T16:09:46;98488.00;;;15.02
24740;BMP280;45234;48.148;17.128;2022-09-27T16:12:14;98492.19;;;14.98
24740;BMP280;45234;48.148;17.128;2022-09-27T16:14:41;98506.78;;;14.94
24740;BMP280;45234;48.148;17.128;2022-09-27T16:17:08;98512.53;;;14.86
24740;BMP280;45234;48.148;17.128;2022-09-27T16:19:35;98515.91;;;14.82
24740;BMP280;45234;48.148;17.128;2022-09-27T16:22:01;98511.94;;;14.69
24740;BMP280;45234;48.148;17.128;2022-09-27T16:24:29;98513.53;;;14.65
24740;BMP280;45234;48.148;17.128;2022-09-27T16:26:57;98513.75;;;14.63
24740;BMP280;45234;48.148;17.128;2022-09-27T16:29:23;98512.19;;;14.57
24740;BMP280;45234;48.148;17.128;2022-09-27T16:31:50;98510.84;;;14.50
24740;BMP280;45234;48.148;17.128;2022-09-27T16:34:18;98517.63;;;14.46
24740;BMP280;45234;48.148;17.128;2022-09-27T16:36:45;98511.06;;;14.43
24740;BMP280;45234;48.148;17.128;2022-09-27T16:39:14;98512.88;;;14.37
24740;BMP280;45234;48.148;17.128;2022-09-27T16:41:41;98517.06;;;14.33
24740;BMP280;45234;48.148;17.128;2022-09-27T16:44:10;98516.75;;;14.30
24740;BMP280;45234;48.148;17.128;2022-09-27T16:46:40;98522.22;;;14.23
24740;BMP280;45234;48.148;17.128;2022-09-27T16:49:07;98521.66;;;14.16
24740;BMP280;45234;48.148;17.128;2022-09-27T16:51:57;98527.38;;;14.13
24740;BMP280;45234;48.148;17.128;2022-09-27T16:54:27;98518.47;;;14.09
24740;BMP280;45234;48.148;17.128;2022-09-27T16:56:55;98529.16;;;14.07
24740;BMP280;45234;48.148;17.128;2022-09-27T16:59:22;98526.78;;;14.06
24740;BMP280;45234;48.148;17.128;2022-09-27T17:01:50;98529.94;;;14.08
24740;BMP280;45234;48.148;17.128;2022-09-27T17:04:17;98540.88;;;14.05
24740;BMP280;45234;48.148;17.128;2022-09-27T17:06:44;98539.00;;;14.00
24740;BMP280;45234;48.148;17.128;2022-09-27T17:09:10;98544.72;;;13.97
24740;BMP280;45234;48.148;17.128;2022-09-27T17:11:37;98545.50;;;13.98
24740;BMP280;45234;48.148;17.128;2022-09-27T17:14:04;98546.53;;;13.97
24740;BMP280;45234;48.148;17.128;2022-09-27T17:16:30;98540.31;;;13.98
24740;BMP280;45234;48.148;17.128;2022-09-27T17:18:57;98539.50;;;13.97
24740;BMP280;45234;48.148;17.128;2022-09-27T17:21:24;98537.94;;;13.96
24740;BMP280;45234;48.148;17.128;2022-09-27T17:23:50;98530.91;;;13.97
24740;BMP280;45234;48.148;17.128;2022-09-27T17:26:21;98536.38;;;13.95
24740;BMP280;45234;48.148;17.128;2022-09-27T17:28:48;98528.81;;;13.94
24740;BMP280;45234;48.148;17.128;2022-09-27T17:31:16;98529.88;;;13.93
24740;BMP280;45234;48.148;17.128;2022-09-27T17:33:45;98531.69;;;13.92
24740;BMP280;45234;48.148;17.128;2022-09-27T17:36:13;98538.94;;;13.90
24740;BMP280;45234;48.148;17.128;2022-09-27T17:38:40;98529.34;;;13.91
24740;BMP280;45234;48.148;17.128;2022-09-27T17:41:08;98523.81;;;13.87